Time;durP1;ratioP1;P1;durP2;ratioP2;P2;SDS_P1;SDS_P2;PMS_P1;PMS_P2;Temp;Humidity;BMP_temperature;BMP_pressure;BME280_temperature;BME280_humidity;BME280_pressure;Samples;Min_cycle;Max_cycle;Signal;HPM_P1;HPM_P2
2022/05/11 00:01:29;;;;;;;5.38;3.75;;;;;;;;;;5062734;28;20043;-49
2022/05/11 00:03:56;;;;;;;5.50;4.10;;;;;;;;;;5059419;28;20025;-50
2022/05/11 00:06:22;;;;;;;6.57;3.92;;;;;;;;;;5057226;28;20055;-51
2022/05/11 00:08:49;;;;;;;6.88;4.22;;;;;;;;;;5068620;28;20059;-48
2022/05/11 00:11:15;;;;;;;6.15;4.43;;;;;;;;;;5069384;28;20411;-50
2022/05/11 00:13:41;;;;;;;9.45;4.45;;;;;;;;;;5052599;28;20483;-50
2022/05/11 00:16:07;;;;;;;7.07;4.45;;;;;;;;;;5073369;28;20104;-47
2022/05/11 00:18:33;;;;;;;5.22;4.03;;;;;;;;;;5068230;28;20036;-47
2022/05/11 00:20:59;;;;;;;6.20;3.92;;;;;;;;;;5064434;28;20465;-48
2022/05/11 00:23:25;;;;;;;6.32;3.70;;;;;;;;;;5056986;28;20033;-48
2022/05/11 00:25:51;;;;;;;6.78;3.78;;;;;;;;;;5063933;28;20020;-54
2022/05/11 00:28:17;;;;;;;5.38;4.13;;;;;;;;;;5061788;28;20043;-53
2022/05/11 00:30:44;;;;;;;5.60;3.70;;;;;;;;;;5058697;28;20024;-51
2022/05/11 00:33:12;;;;;;;6.13;3.78;;;;;;;;;;5060748;28;20530;-48
2022/05/11 00:35:38;;;;;;;6.15;3.78;;;;;;;;;;5066598;28;20042;-52
2022/05/11 00:38:05;;;;;;;10.13;4.60;;;;;;;;;;5067772;28;20024;-47
2022/05/11 00:40:31;;;;;;;7.05;4.85;;;;;;;;;;5063401;28;20068;-49
2022/05/11 00:42:57;;;;;;;8.30;4.35;;;;;;;;;;5063228;28;20032;-48
2022/05/11 00:45:23;;;;;;;7.25;4.07;;;;;;;;;;5070025;28;20490;-51
2022/05/11 00:47:53;;;;;;;6.05;4.28;;;;;;;;;;5062044;28;20055;-51
2022/05/11 00:50:26;;;;;;;9.55;4.10;;;;;;;;;;5070894;28;20555;-51
2022/05/11 00:53:11;;;;;;;9.95;4.57;;;;;;;;;;5069272;28;20371;-49
2022/05/11 00:55:41;;;;;;;6.10;3.88;;;;;;;;;;5066433;28;20033;-48
2022/05/11 00:58:09;;;;;;;6.68;4.03;;;;;;;;;;5061070;28;20028;-50
2022/05/11 01:00:36;;;;;;;7.35;4.13;;;;;;;;;;5064329;28;20027;-47
2022/05/11 01:03:04;;;;;;;6.45;4.47;;;;;;;;;;5065266;28;20048;-51
2022/05/11 01:05:30;;;;;;;6.63;3.72;;;;;;;;;;5064828;28;20036;-48
2022/05/11 01:07:57;;;;;;;5.88;4.40;;;;;;;;;;5064805;28;20028;-47
2022/05/11 01:10:24;;;;;;;8.80;4.82;;;;;;;;;;5060457;28;20037;-49
2022/05/11 01:12:52;;;;;;;11.60;4.57;;;;;;;;;;5068563;28;20551;-48
2022/05/11 01:15:18;;;;;;;5.03;3.75;;;;;;;;;;5070765;28;20537;-53
2022/05/11 01:17:44;;;;;;;7.28;4.32;;;;;;;;;;5064334;28;20107;-52
2022/05/11 01:20:17;;;;;;;6.00;4.25;;;;;;;;;;5070171;28;20144;-48
2022/05/11 01:22:51;;;;;;;9.27;4.20;;;;;;;;;;5062874;28;20048;-49
2022/05/11 01:25:17;;;;;;;8.18;3.90;;;;;;;;;;5059847;28;20503;-51
2022/05/11 01:27:44;;;;;;;5.72;4.20;;;;;;;;;;5069461;28;20032;-52
2022/05/11 01:30:12;;;;;;;5.22;3.70;;;;;;;;;;5069453;28;20085;-49
2022/05/11 01:32:39;;;;;;;6.07;4.30;;;;;;;;;;5068427;28;20032;-50
2022/05/11 01:35:08;;;;;;;6.30;4.28;;;;;;;;;;5068523;28;20484;-50
2022/05/11 01:37:38;;;;;;;7.43;4.57;;;;;;;;;;5054167;28;20728;-50
2022/05/11 01:40:05;;;;;;;8.73;4.50;;;;;;;;;;5056910;28;20021;-52
2022/05/11 01:42:31;;;;;;;5.75;3.97;;;;;;;;;;5068904;28;20036;-51
2022/05/11 01:44:57;;;;;;;6.13;4.13;;;;;;;;;;5063279;28;20047;-51
2022/05/11 01:47:23;;;;;;;6.35;4.32;;;;;;;;;;5063695;28;20123;-48
2022/05/11 01:49:49;;;;;;;7.20;4.90;;;;;;;;;;5069509;28;20025;-51
2022/05/11 01:52:15;;;;;;;7.30;4.60;;;;;;;;;;5059065;28;20025;-47
2022/05/11 01:54:41;;;;;;;6.53;4.47;;;;;;;;;;5061022;28;20481;-49
2022/05/11 01:57:07;;;;;;;8.90;4.45;;;;;;;;;;5060065;28;20430;-51
2022/05/11 01:59:33;;;;;;;5.53;3.92;;;;;;;;;;5069591;28;20039;-51
2022/05/11 02:01:59;;;;;;;8.35;3.92;;;;;;;;;;5047878;28;20567;-50
2022/05/11 02:10:08;;;;;;;5.15;3.85;;;;;;;;;;5053565;28;20042;-49
2022/05/11 02:12:36;;;;;;;4.57;3.53;;;;;;;;;;5066886;28;20159;-47
2022/05/11 02:15:02;;;;;;;5.57;3.75;;;;;;;;;;5069599;28;20492;-47
2022/05/11 02:17:28;;;;;;;5.15;3.67;;;;;;;;;;5063989;28;20162;-52
2022/05/11 02:19:53;;;;;;;6.28;4.00;;;;;;;;;;5074929;28;20054;-51
2022/05/11 02:22:19;;;;;;;6.63;3.70;;;;;;;;;;5064742;28;20037;-52
2022/05/11 02:24:45;;;;;;;7.05;3.97;;;;;;;;;;5070338;28;20020;-52
2022/05/11 02:27:12;;;;;;;7.78;4.38;;;;;;;;;;5063484;28;20388;-52
2022/05/11 02:29:38;;;;;;;5.45;4.13;;;;;;;;;;5065586;28;20416;-48
2022/05/11 02:32:04;;;;;;;4.90;4.05;;;;;;;;;;5063153;28;20029;-48
2022/05/11 02:37:14;;;;;;;7.13;4.57;;;;;;;;;;5060637;28;20125;-49
2022/05/11 02:39:40;;;;;;;8.05;4.38;;;;;;;;;;5062433;28;20040;-49
2022/05/11 02:42:06;;;;;;;9.45;4.57;;;;;;;;;;5066443;28;20044;-51
2022/05/11 02:44:32;;;;;;;4.75;3.75;;;;;;;;;;5065152;28;20032;-51
2022/05/11 02:46:58;;;;;;;5.00;4.05;;;;;;;;;;5056698;28;20035;-49
2022/05/11 02:49:24;;;;;;;7.43;4.43;;;;;;;;;;5075440;28;20387;-48
2022/05/11 02:51:50;;;;;;;7.72;4.70;;;;;;;;;;5068369;28;20059;-49
2022/05/11 02:54:16;;;;;;;8.30;4.13;;;;;;;;;;5055835;28;20104;-47
2022/05/11 02:56:42;;;;;;;6.30;4.15;;;;;;;;;;5064052;28;20032;-48
2022/05/11 02:59:08;;;;;;;5.45;4.85;;;;;;;;;;5060664;28;20039;-48
2022/05/11 03:01:34;;;;;;;7.15;4.47;;;;;;;;;;5065409;28;20025;-48
2022/05/11 03:04:01;;;;;;;6.60;4.22;;;;;;;;;;5050702;28;20033;-48
2022/05/11 03:06:27;;;;;;;5.80;4.03;;;;;;;;;;5055932;28;20035;-47
2022/05/11 03:08:53;;;;;;;5.53;3.92;;;;;;;;;;5065647;28;20021;-52
2022/05/11 03:11:19;;;;;;;7.47;4.47;;;;;;;;;;5069700;28;20027;-51
2022/05/11 03:13:44;;;;;;;7.20;4.57;;;;;;;;;;5056068;28;20883;-52
2022/05/11 03:16:11;;;;;;;9.77;4.78;;;;;;;;;;5065417;28;20028;-52
2022/05/11 03:18:36;;;;;;;5.80;4.53;;;;;;;;;;5062997;28;20029;-50
2022/05/11 03:21:03;;;;;;;5.45;4.05;;;;;;;;;;5071516;28;20090;-52
2022/05/11 03:23:29;;;;;;;7.32;4.90;;;;;;;;;;5058090;28;20024;-52
2022/05/11 03:25:55;;;;;;;7.05;4.93;;;;;;;;;;5063915;28;20087;-50
2022/05/11 03:28:21;;;;;;;8.05;5.07;;;;;;;;;;5064426;28;20029;-49
2022/05/11 03:30:47;;;;;;;7.20;4.88;;;;;;;;;;5063132;28;20056;-49
2022/05/11 03:35:58;;;;;;;6.15;4.53;;;;;;;;;;5069130;28;20719;-49
2022/05/11 03:38:24;;;;;;;10.50;5.30;;;;;;;;;;5058847;28;20033;-47
2022/05/11 03:40:50;;;;;;;6.88;5.28;;;;;;;;;;5062320;28;20468;-46
2022/05/11 03:43:16;;;;;;;8.30;5.07;;;;;;;;;;5069307;28;20503;-47
2022/05/11 03:45:42;;;;;;;9.95;5.05;;;;;;;;;;5073017;28;20036;-48
2022/05/11 03:48:08;;;;;;;8.60;5.20;;;;;;;;;;5058794;28;20392;-48
2022/05/11 03:50:34;;;;;;;7.70;5.45;;;;;;;;;;5068879;28;20039;-47
2022/05/11 03:53:00;;;;;;;7.22;4.55;;;;;;;;;;5063755;28;20024;-50
2022/05/11 03:55:27;;;;;;;7.85;4.72;;;;;;;;;;5059296;28;20047;-47
2022/05/11 03:57:53;;;;;;;12.55;5.10;;;;;;;;;;5071316;28;20040;-47
2022/05/11 04:00:21;;;;;;;8.68;5.90;;;;;;;;;;5070570;28;20032;-50
2022/05/11 04:02:47;;;;;;;11.57;5.40;;;;;;;;;;5060009;28;20021;-54
2022/05/11 04:05:14;;;;;;;9.43;5.22;;;;;;;;;;5060214;28;20037;-51
2022/05/11 04:07:40;;;;;;;9.60;5.55;;;;;;;;;;5063200;28;20032;-51
2022/05/11 04:10:07;;;;;;;9.02;6.05;;;;;;;;;;5048531;28;20024;-48
2022/05/11 04:12:34;;;;;;;7.30;5.40;;;;;;;;;;5057326;28;20032;-51
2022/05/11 04:15:00;;;;;;;6.43;5.32;;;;;;;;;;5053828;28;20408;-51
2022/05/11 04:17:26;;;;;;;7.78;6.03;;;;;;;;;;5057235;28;20060;-48
2022/05/11 04:19:52;;;;;;;8.35;5.70;;;;;;;;;;5073245;28;20901;-47
2022/05/11 04:22:18;;;;;;;9.85;5.75;;;;;;;;;;5060851;28;20028;-48
2022/05/11 04:24:44;;;;;;;7.38;5.63;;;;;;;;;;5066026;28;20045;-51
2022/05/11 04:27:10;;;;;;;8.82;6.20;;;;;;;;;;5045307;28;20037;-48
2022/05/11 04:29:37;;;;;;;9.57;6.80;;;;;;;;;;5059720;28;20405;-51
2022/05/11 04:32:03;;;;;;;8.35;6.15;;;;;;;;;;5057945;28;20519;-48
2022/05/11 04:34:29;;;;;;;8.68;6.13;;;;;;;;;;5060969;28;20026;-47
2022/05/11 04:36:55;;;;;;;8.45;6.00;;;;;;;;;;5070765;28;20020;-49
2022/05/11 04:39:21;;;;;;;8.70;6.32;;;;;;;;;;5068745;28;20040;-49
2022/05/11 04:41:47;;;;;;;8.82;6.55;;;;;;;;;;5068365;28;20106;-50
2022/05/11 04:44:13;;;;;;;7.10;6.00;;;;;;;;;;5066126;28;20044;-52
2022/05/11 04:46:39;;;;;;;8.68;6.25;;;;;;;;;;5057806;28;20110;-49
2022/05/11 04:49:21;;;;;;;9.15;6.72;;;;;;;;;;5062353;28;20028;-52
2022/05/11 04:51:48;;;;;;;10.13;6.40;;;;;;;;;;5054781;28;20029;-49
2022/05/11 04:54:15;;;;;;;9.30;6.40;;;;;;;;;;5053212;28;20037;-50
2022/05/11 04:56:41;;;;;;;7.75;6.55;;;;;;;;;;5057105;28;20117;-51
2022/05/11 04:59:08;;;;;;;11.95;7.28;;;;;;;;;;5061030;28;20033;-51
2022/05/11 05:01:34;;;;;;;9.55;6.15;;;;;;;;;;5066877;28;20531;-51
2022/05/11 05:04:01;;;;;;;9.27;6.30;;;;;;;;;;5060617;28;20017;-47
2022/05/11 05:06:28;;;;;;;9.02;5.95;;;;;;;;;;5052844;28;20035;-49
2022/05/11 05:08:55;;;;;;;14.07;6.25;;;;;;;;;;5063352;28;20404;-48
2022/05/11 05:11:21;;;;;;;9.32;6.45;;;;;;;;;;5064991;28;20037;-48
2022/05/11 05:13:47;;;;;;;8.75;6.63;;;;;;;;;;5063303;28;20033;-49
2022/05/11 05:16:13;;;;;;;9.07;6.70;;;;;;;;;;5058975;28;20484;-48
2022/05/11 05:18:39;;;;;;;9.50;6.15;;;;;;;;;;5065052;28;20117;-50
2022/05/11 05:21:05;;;;;;;8.40;6.70;;;;;;;;;;5066450;28;20372;-52
2022/05/11 05:23:34;;;;;;;11.30;6.35;;;;;;;;;;5067255;28;20057;-53
2022/05/11 05:26:02;;;;;;;9.10;6.78;;;;;;;;;;5058894;28;20020;-48
2022/05/11 05:31:15;;;;;;;10.13;6.88;;;;;;;;;;5068645;28;20102;-49
2022/05/11 05:33:41;;;;;;;9.13;6.47;;;;;;;;;;5068528;28;20426;-52
2022/05/11 05:36:08;;;;;;;9.52;6.50;;;;;;;;;;5055044;28;20021;-50
2022/05/11 05:38:36;;;;;;;9.63;6.70;;;;;;;;;;5066583;28;20048;-50
2022/05/11 05:41:02;;;;;;;8.45;6.57;;;;;;;;;;5059695;28;20504;-48
2022/05/11 05:43:28;;;;;;;8.93;7.25;;;;;;;;;;5061281;28;20115;-50
2022/05/11 05:45:54;;;;;;;9.20;7.22;;;;;;;;;;5058486;28;20107;-48
2022/05/11 05:48:21;;;;;;;12.90;7.95;;;;;;;;;;5066469;28;20449;-46
2022/05/11 05:50:47;;;;;;;12.45;7.57;;;;;;;;;;5074570;28;20024;-49
2022/05/11 05:53:14;;;;;;;10.00;7.35;;;;;;;;;;5067406;28;20112;-50
2022/05/11 05:55:41;;;;;;;10.23;7.53;;;;;;;;;;5071526;28;20025;-50
2022/05/11 05:58:07;;;;;;;10.32;6.93;;;;;;;;;;5071736;28;20024;-50
2022/05/11 06:00:33;;;;;;;11.48;7.28;;;;;;;;;;5071306;28;20051;-50
2022/05/11 06:02:59;;;;;;;10.63;8.10;;;;;;;;;;5058769;28;20446;-48
2022/05/11 06:05:28;;;;;;;11.93;8.02;;;;;;;;;;5071264;28;20373;-50
2022/05/11 06:07:54;;;;;;;10.90;7.13;;;;;;;;;;5068892;28;20480;-50
2022/05/11 06:10:20;;;;;;;8.55;6.95;;;;;;;;;;5070138;28;20044;-50
2022/05/11 06:12:46;;;;;;;9.68;7.07;;;;;;;;;;5067655;28;20025;-47
2022/05/11 06:15:13;;;;;;;11.27;6.80;;;;;;;;;;5070704;28;20021;-51
2022/05/11 06:17:39;;;;;;;9.13;6.68;;;;;;;;;;5061452;28;20103;-51
2022/05/11 06:20:08;;;;;;;13.63;7.28;;;;;;;;;;5067817;28;20555;-47
2022/05/11 06:22:34;;;;;;;10.10;7.50;;;;;;;;;;5059837;28;20126;-50
2022/05/11 06:25:00;;;;;;;11.02;7.18;;;;;;;;;;5061457;28;20127;-46
2022/05/11 06:27:27;;;;;;;12.77;7.32;;;;;;;;;;5055591;28;20702;-51
2022/05/11 06:29:54;;;;;;;13.40;7.15;;;;;;;;;;5059535;28;20029;-48
2022/05/11 06:32:22;;;;;;;8.43;7.03;;;;;;;;;;5065696;28;20039;-48
2022/05/11 06:34:48;;;;;;;10.32;7.28;;;;;;;;;;5064399;28;20132;-51
2022/05/11 06:37:14;;;;;;;12.30;7.70;;;;;;;;;;5063374;28;20040;-47
2022/05/11 06:39:40;;;;;;;10.10;6.63;;;;;;;;;;5063355;28;20528;-48
2022/05/11 06:42:07;;;;;;;10.55;7.05;;;;;;;;;;5064259;28;20020;-51
2022/05/11 06:44:33;;;;;;;10.00;6.80;;;;;;;;;;5066011;28;20089;-51
2022/05/11 06:46:59;;;;;;;10.38;6.18;;;;;;;;;;5058937;28;20036;-48
2022/05/11 06:49:26;;;;;;;15.38;6.88;;;;;;;;;;5064383;28;20450;-47
2022/05/11 06:51:52;;;;;;;9.23;6.60;;;;;;;;;;5062699;28;20021;-48
2022/05/11 06:59:48;;;;;;;8.57;6.63;;;;;;;;;;5052745;28;20047;-48
2022/05/11 07:02:14;;;;;;;10.45;6.00;;;;;;;;;;5063672;28;20033;-46
2022/05/11 07:04:40;;;;;;;8.95;6.50;;;;;;;;;;5056843;28;20491;-48
2022/05/11 07:07:07;;;;;;;9.02;6.15;;;;;;;;;;5057201;28;20027;-48
2022/05/11 07:09:33;;;;;;;8.70;6.25;;;;;;;;;;5056420;28;20021;-49
2022/05/11 07:12:18;;;;;;;8.93;6.40;;;;;;;;;;5056030;28;20151;-49
2022/05/11 07:14:49;;;;;;;14.13;7.20;;;;;;;;;;5062998;28;20505;-48
2022/05/11 07:17:24;;;;;;;12.13;6.38;;;;;;;;;;5059091;28;20032;-49
2022/05/11 07:19:50;;;;;;;7.75;5.22;;;;;;;;;;5068980;28;20048;-50
2022/05/11 07:22:16;;;;;;;10.15;6.03;;;;;;;;;;5064977;28;20025;-48
2022/05/11 07:24:43;;;;;;;9.23;5.68;;;;;;;;;;5070377;28;20028;-49
2022/05/11 07:27:09;;;;;;;6.63;5.10;;;;;;;;;;5061999;28;20035;-51
2022/05/11 07:29:35;;;;;;;9.30;5.25;;;;;;;;;;5068074;28;20085;-51
2022/05/11 07:32:01;;;;;;;6.85;4.45;;;;;;;;;;5067978;28;20025;-51
2022/05/11 07:34:28;;;;;;;7.93;4.68;;;;;;;;;;5060098;28;20545;-47
2022/05/11 07:36:54;;;;;;;6.63;4.50;;;;;;;;;;5063543;28;20040;-47
2022/05/11 07:39:23;;;;;;;7.20;4.60;;;;;;;;;;5053198;28;20102;-49
2022/05/11 07:41:50;;;;;;;7.63;4.72;;;;;;;;;;5042908;28;20111;-48
2022/05/11 07:44:16;;;;;;;6.03;4.40;;;;;;;;;;5068508;28;20108;-52
2022/05/11 07:46:43;;;;;;;4.88;4.00;;;;;;;;;;5062715;28;20389;-49
2022/05/11 07:49:09;;;;;;;5.35;4.38;;;;;;;;;;5069303;28;20024;-50
2022/05/11 07:51:36;;;;;;;6.90;3.70;;;;;;;;;;5069306;28;20101;-49
2022/05/11 07:54:02;;;;;;;5.45;3.38;;;;;;;;;;5062792;28;20020;-51
2022/05/11 08:01:58;;;;;;;6.90;3.88;;;;;;;;;;5065116;28;20124;-50
2022/05/11 08:04:24;;;;;;;7.88;4.10;;;;;;;;;;5067075;28;20047;-53
2022/05/11 08:06:50;;;;;;;4.65;3.33;;;;;;;;;;5054670;28;20033;-53
2022/05/11 08:09:16;;;;;;;3.67;2.88;;;;;;;;;;5049392;28;22202;-50
2022/05/11 08:11:42;;;;;;;3.85;2.85;;;;;;;;;;5058913;28;20033;-53
2022/05/11 08:14:08;;;;;;;6.20;3.33;;;;;;;;;;5063334;28;20017;-50
2022/05/11 08:16:35;;;;;;;7.07;3.47;;;;;;;;;;5069020;28;20029;-49
2022/05/11 08:19:01;;;;;;;7.55;3.13;;;;;;;;;;5072468;28;20071;-50
2022/05/11 08:21:27;;;;;;;5.47;3.40;;;;;;;;;;5067963;28;20471;-52
2022/05/11 08:23:53;;;;;;;5.53;3.55;;;;;;;;;;5060188;28;20499;-52
2022/05/11 08:26:19;;;;;;;5.82;3.42;;;;;;;;;;5058634;28;20051;-47
2022/05/11 08:28:46;;;;;;;7.80;3.70;;;;;;;;;;5070882;28;20060;-48
2022/05/11 08:33:56;;;;;;;6.20;4.63;;;;;;;;;;5055506;28;20071;-48
2022/05/11 08:36:24;;;;;;;5.50;3.88;;;;;;;;;;5060489;28;20028;-47
2022/05/11 08:38:52;;;;;;;9.13;3.88;;;;;;;;;;5065100;28;20021;-50
2022/05/11 08:41:37;;;;;;;5.45;4.20;;;;;;;;;;5061641;28;20033;-48
2022/05/11 08:44:14;;;;;;;5.55;3.83;;;;;;;;;;5065205;28;20078;-48
2022/05/11 08:46:49;;;;;;;4.93;3.30;;;;;;;;;;5062337;28;20035;-50
2022/05/11 08:49:47;;;;;;;7.97;3.53;;;;;;;;;;5063964;28;20024;-47
2022/05/11 08:52:32;;;;;;;7.78;3.50;;;;;;;;;;5043019;28;20400;-46
2022/05/11 08:55:05;;;;;;;4.88;3.38;;;;;;;;;;5059623;28;20524;-49
2022/05/11 08:57:33;;;;;;;5.15;3.92;;;;;;;;;;5069937;28;20546;-47
2022/05/11 09:00:00;;;;;;;5.15;3.80;;;;;;;;;;5066348;28;20028;-51
2022/05/11 09:02:29;;;;;;;5.05;3.97;;;;;;;;;;5068180;28;20033;-48
2022/05/11 09:04:59;;;;;;;4.60;3.53;;;;;;;;;;5072061;28;20075;-48
2022/05/11 09:07:26;;;;;;;6.53;3.60;;;;;;;;;;5060769;28;20041;-47
2022/05/11 09:09:53;;;;;;;7.47;4.18;;;;;;;;;;5065677;28;20069;-52
2022/05/11 09:12:20;;;;;;;6.25;3.95;;;;;;;;;;5060091;28;20561;-48
2022/05/11 09:14:49;;;;;;;7.20;3.70;;;;;;;;;;5065010;28;20032;-49
2022/05/11 09:17:21;;;;;;;7.45;4.30;;;;;;;;;;5064268;28;20069;-49
2022/05/11 09:19:54;;;;;;;7.60;3.67;;;;;;;;;;5065111;28;20156;-52
2022/05/11 09:22:24;;;;;;;5.63;3.90;;;;;;;;;;5062708;28;20036;-52
2022/05/11 09:24:53;;;;;;;6.03;4.38;;;;;;;;;;5057185;28;20029;-52
2022/05/11 09:27:24;;;;;;;8.80;4.43;;;;;;;;;;5056394;28;20024;-51
2022/05/11 09:30:01;;;;;;;7.45;5.00;;;;;;;;;;5057996;28;20056;-49
2022/05/11 09:32:37;;;;;;;6.82;4.82;;;;;;;;;;5066864;28;20033;-50
2022/05/11 09:35:18;;;;;;;5.43;4.15;;;;;;;;;;5063317;28;20029;-49
2022/05/11 09:37:45;;;;;;;7.30;3.97;;;;;;;;;;5055474;28;20115;-50
2022/05/11 09:40:21;;;;;;;6.30;3.90;;;;;;;;;;5055592;28;20459;-51
2022/05/11 09:42:59;;;;;;;5.25;4.20;;;;;;;;;;5059531;28;20107;-51
2022/05/11 09:45:34;;;;;;;6.95;4.13;;;;;;;;;;5064499;28;20085;-49
2022/05/11 09:48:05;;;;;;;8.00;3.75;;;;;;;;;;5061988;28;20423;-51
2022/05/11 09:50:31;;;;;;;5.55;3.88;;;;;;;;;;5061936;28;20467;-52
2022/05/11 09:53:08;;;;;;;5.50;4.13;;;;;;;;;;5058710;28;20056;-50
2022/05/11 09:55:34;;;;;;;6.28;4.28;;;;;;;;;;5058803;28;20029;-48
2022/05/11 09:58:02;;;;;;;4.45;3.88;;;;;;;;;;5057406;28;20499;-48
2022/05/11 10:00:39;;;;;;;6.20;3.65;;;;;;;;;;5062030;28;20112;-48
2022/05/11 10:03:12;;;;;;;4.95;3.85;;;;;;;;;;5059466;28;20031;-50
2022/05/11 10:05:41;;;;;;;6.47;3.30;;;;;;;;;;5057435;28;20483;-53
2022/05/11 10:08:25;;;;;;;3.72;3.05;;;;;;;;;;5065486;28;20024;-49
2022/05/11 10:10:54;;;;;;;3.50;3.03;;;;;;;;;;5066075;28;20574;-50
2022/05/11 10:13:30;;;;;;;11.10;3.50;;;;;;;;;;5064580;28;20032;-47
2022/05/11 10:21:50;;;;;;;6.28;3.75;;;;;;;;;;5064920;28;20052;-52
2022/05/11 10:21:53;;;;;;;5.60;3.35;;;;;;;;;;5065342;28;20411;-49
2022/05/11 10:24:38;;;;;;;4.68;3.53;;;;;;;;;;5069759;28;20040;-47
2022/05/11 10:27:04;;;;;;;3.58;2.60;;;;;;;;;;5055689;28;20503;-51
2022/05/11 10:29:49;;;;;;;4.28;2.97;;;;;;;;;;5065053;28;20028;-50
2022/05/11 10:32:33;;;;;;;3.22;2.50;;;;;;;;;;5059944;28;20024;-49
2022/05/11 10:35:05;;;;;;;5.38;3.17;;;;;;;;;;5038086;28;20029;-47
2022/05/11 10:37:33;;;;;;;3.47;2.58;;;;;;;;;;5068938;28;20150;-52
2022/05/11 10:40:09;;;;;;;5.60;2.80;;;;;;;;;;5064638;28;20033;-51
2022/05/11 10:42:36;;;;;;;4.10;2.40;;;;;;;;;;5061624;28;20077;-53
2022/05/11 10:45:02;;;;;;;7.85;2.63;;;;;;;;;;5054801;28;20021;-48
2022/05/11 10:47:47;;;;;;;6.18;2.70;;;;;;;;;;5062744;28;20036;-49
2022/05/11 10:50:29;;;;;;;4.25;2.42;;;;;;;;;;5055961;28;20025;-49
2022/05/11 10:52:55;;;;;;;4.10;2.00;;;;;;;;;;5057179;28;20033;-50
2022/05/11 10:55:31;;;;;;;4.10;2.20;;;;;;;;;;5055574;28;20078;-52
2022/05/11 10:58:03;;;;;;;3.38;2.20;;;;;;;;;;5051719;28;20021;-52
2022/05/11 11:00:31;;;;;;;4.35;2.30;;;;;;;;;;5057169;28;20036;-51
2022/05/11 11:03:03;;;;;;;4.70;2.20;;;;;;;;;;5055401;28;20028;-49
2022/05/11 11:05:34;;;;;;;5.03;2.40;;;;;;;;;;5053603;28;20094;-49
2022/05/11 11:08:19;;;;;;;2.58;2.17;;;;;;;;;;5063206;28;20111;-51
2022/05/11 11:10:48;;;;;;;3.47;2.42;;;;;;;;;;5062568;28;20025;-50
2022/05/11 11:13:22;;;;;;;3.17;2.30;;;;;;;;;;5057212;28;20477;-49
2022/05/11 11:15:50;;;;;;;2.90;2.08;;;;;;;;;;5057240;28;20036;-48
2022/05/11 11:18:29;;;;;;;4.05;2.00;;;;;;;;;;5060055;28;20435;-48
2022/05/11 11:21:01;;;;;;;4.63;2.08;;;;;;;;;;5058995;28;20044;-48
2022/05/11 11:23:28;;;;;;;3.30;1.73;;;;;;;;;;5062462;28;20107;-51
2022/05/11 11:25:55;;;;;;;4.03;1.98;;;;;;;;;;5062921;28;20029;-50
2022/05/11 11:28:23;;;;;;;3.22;1.70;;;;;;;;;;5061324;28;20041;-49
2022/05/11 11:30:58;;;;;;;5.13;2.03;;;;;;;;;;5065752;28;20576;-49
2022/05/11 11:33:25;;;;;;;3.95;1.83;;;;;;;;;;5057762;28;20036;-50
2022/05/11 11:35:54;;;;;;;5.10;1.73;;;;;;;;;;5061286;28;20116;-52
2022/05/11 11:38:30;;;;;;;2.95;1.52;;;;;;;;;;5055235;28;20056;-49
2022/05/11 11:41:14;;;;;;;3.63;2.08;;;;;;;;;;5050250;28;20025;-49
2022/05/11 11:43:45;;;;;;;2.38;1.70;;;;;;;;;;5053859;28;20036;-51
2022/05/11 11:46:27;;;;;;;2.38;1.70;;;;;;;;;;5050754;28;20116;-49
2022/05/11 11:49:02;;;;;;;5.22;1.80;;;;;;;;;;5059748;28;20115;-52
2022/05/11 11:51:33;;;;;;;7.85;1.55;;;;;;;;;;5054805;28;20468;-53
2022/05/11 11:53:59;;;;;;;3.55;1.90;;;;;;;;;;5062628;28;20429;-50
2022/05/11 11:56:25;;;;;;;2.35;1.50;;;;;;;;;;5058482;28;20028;-52
2022/05/11 11:59:09;;;;;;;1.70;1.25;;;;;;;;;;5056764;28;20033;-50
2022/05/11 12:01:38;;;;;;;11.63;1.60;;;;;;;;;;5060208;28;20025;-49
2022/05/11 12:04:33;;;;;;;5.95;1.70;;;;;;;;;;5060585;28;20447;-47
2022/05/11 12:15:33;;;;;;;1.88;1.38;;;;;;;;;;5068679;28;20466;-53
2022/05/11 12:17:59;;;;;;;3.78;1.40;;;;;;;;;;5063068;28;20677;-53
2022/05/11 12:20:25;;;;;;;3.42;1.52;;;;;;;;;;5068886;28;20049;-52
2022/05/11 12:22:53;;;;;;;4.75;1.80;;;;;;;;;;5062580;28;20029;-52
2022/05/11 12:25:36;;;;;;;2.75;1.60;;;;;;;;;;5063401;28;20040;-51
2022/05/11 12:28:17;;;;;;;4.10;1.70;;;;;;;;;;5066224;28;20032;-50
2022/05/11 12:30:43;;;;;;;2.45;1.50;;;;;;;;;;5065820;28;20032;-52
2022/05/11 12:33:18;;;;;;;3.50;1.13;;;;;;;;;;5064079;28;21669;-51
2022/05/11 12:35:46;;;;;;;2.75;1.50;;;;;;;;;;5055819;28;20515;-51
2022/05/11 12:38:13;;;;;;;1.42;1.27;;;;;;;;;;5063363;28;20040;-50
2022/05/11 12:40:45;;;;;;;3.63;1.63;;;;;;;;;;5072295;28;20024;-49
2022/05/11 12:43:26;;;;;;;5.20;1.45;;;;;;;;;;5068681;28;20024;-53
2022/05/11 12:45:54;;;;;;;4.85;1.83;;;;;;;;;;5072330;28;20037;-53
2022/05/11 12:48:46;;;;;;;6.40;1.45;;;;;;;;;;5065345;28;20029;-49
2022/05/11 12:51:16;;;;;;;2.45;1.58;;;;;;;;;;5053867;28;20048;-51
2022/05/11 12:53:50;;;;;;;2.45;1.20;;;;;;;;;;5072900;28;20071;-53
2022/05/11 12:56:21;;;;;;;1.70;1.10;;;;;;;;;;5072403;28;20024;-51
2022/05/11 12:58:47;;;;;;;4.30;1.30;;;;;;;;;;5066745;28;20114;-52
2022/05/11 13:01:16;;;;;;;3.35;1.70;;;;;;;;;;5065757;28;20037;-48
2022/05/11 13:03:42;;;;;;;1.77;1.38;;;;;;;;;;5066404;28;20062;-50
2022/05/11 13:06:14;;;;;;;4.80;1.63;;;;;;;;;;5063939;28;20028;-48
2022/05/11 13:08:44;;;;;;;4.13;1.30;;;;;;;;;;5068078;28;20423;-52
2022/05/11 13:11:13;;;;;;;4.05;1.45;;;;;;;;;;5067231;28;20078;-47
2022/05/11 13:13:42;;;;;;;5.15;1.85;;;;;;;;;;5071767;28;20052;-47
2022/05/11 13:16:09;;;;;;;5.22;1.50;;;;;;;;;;5072151;28;20032;-49
2022/05/11 13:18:36;;;;;;;4.35;1.10;;;;;;;;;;5068537;28;20025;-49
2022/05/11 13:21:05;;;;;;;4.32;1.60;;;;;;;;;;5068949;28;20124;-49
2022/05/11 13:23:33;;;;;;;6.78;1.58;;;;;;;;;;5072659;28;20028;-48
2022/05/11 13:26:00;;;;;;;1.75;1.15;;;;;;;;;;5067220;28;20025;-49
2022/05/11 13:28:28;;;;;;;5.47;1.70;;;;;;;;;;5058129;28;20024;-53
2022/05/11 13:30:56;;;;;;;1.55;1.10;;;;;;;;;;5053232;28;20033;-53
2022/05/11 13:33:34;;;;;;;2.70;1.40;;;;;;;;;;5060066;28;20029;-50
2022/05/11 13:36:04;;;;;;;2.40;1.45;;;;;;;;;;5064461;28;20463;-49
2022/05/11 13:38:30;;;;;;;2.10;1.35;;;;;;;;;;5070742;28;20032;-50
2022/05/11 13:40:59;;;;;;;2.33;1.50;;;;;;;;;;5070735;28;20021;-48
2022/05/11 13:43:31;;;;;;;2.22;1.63;;;;;;;;;;5065796;28;20036;-52
2022/05/11 13:45:57;;;;;;;3.80;1.65;;;;;;;;;;5068549;28;20086;-49
2022/05/11 13:48:25;;;;;;;6.25;2.28;;;;;;;;;;5069092;28;20745;-48
2022/05/11 13:50:51;;;;;;;3.92;1.73;;;;;;;;;;5066591;28;20032;-48
2022/05/11 13:53:17;;;;;;;4.40;1.45;;;;;;;;;;5071534;28;20063;-50
2022/05/11 13:55:44;;;;;;;3.95;1.63;;;;;;;;;;5051243;28;20479;-48
2022/05/11 13:58:29;;;;;;;2.25;1.40;;;;;;;;;;5069737;28;20032;-46
2022/05/11 14:00:57;;;;;;;3.60;1.63;;;;;;;;;;5065639;28;20044;-49
2022/05/11 14:03:27;;;;;;;7.00;1.88;;;;;;;;;;5068740;28;20017;-46
2022/05/11 14:05:55;;;;;;;3.33;1.52;;;;;;;;;;5066270;28;20147;-48
2022/05/11 14:08:21;;;;;;;3.78;1.65;;;;;;;;;;5066982;28;20029;-48
2022/05/11 14:10:47;;;;;;;3.33;1.38;;;;;;;;;;5067726;28;20052;-48
2022/05/11 14:13:13;;;;;;;3.55;1.33;;;;;;;;;;5063618;28;20021;-51
2022/05/11 14:15:39;;;;;;;3.80;1.30;;;;;;;;;;5069616;28;20538;-51
2022/05/11 14:18:09;;;;;;;1.63;1.10;;;;;;;;;;5067976;28;20040;-52
2022/05/11 14:20:36;;;;;;;3.15;1.55;;;;;;;;;;5063328;28;20056;-52
2022/05/11 14:23:03;;;;;;;6.22;1.58;;;;;;;;;;5068214;28;20036;-53
2022/05/11 14:25:29;;;;;;;2.85;0.90;;;;;;;;;;5068302;28;20054;-51
2022/05/11 14:27:56;;;;;;;5.75;1.20;;;;;;;;;;5067175;28;20039;-49
2022/05/11 14:30:22;;;;;;;2.72;1.08;;;;;;;;;;5070255;28;20047;-50
2022/05/11 14:32:48;;;;;;;2.88;1.10;;;;;;;;;;5069281;28;20118;-51
2022/05/11 14:35:19;;;;;;;2.45;1.55;;;;;;;;;;5075901;28;20066;-48
2022/05/11 14:37:45;;;;;;;2.17;1.15;;;;;;;;;;5069429;28;20052;-52
2022/05/11 14:40:14;;;;;;;4.25;1.52;;;;;;;;;;5065427;28;20033;-53
2022/05/11 14:42:40;;;;;;;1.90;1.38;;;;;;;;;;5060137;28;20528;-52
2022/05/11 14:45:07;;;;;;;7.63;1.60;;;;;;;;;;5058945;28;20111;-51
2022/05/11 14:47:33;;;;;;;4.03;1.60;;;;;;;;;;5064979;28;20021;-50
2022/05/11 14:50:03;;;;;;;2.88;1.40;;;;;;;;;;5062786;28;20077;-52
2022/05/11 14:52:30;;;;;;;4.72;1.40;;;;;;;;;;5069495;28;20031;-47
2022/05/11 14:54:56;;;;;;;4.95;1.92;;;;;;;;;;5069866;28;20024;-50
2022/05/11 15:02:52;;;;;;;4.82;1.85;;;;;;;;;;5066833;28;20044;-51
2022/05/11 15:05:18;;;;;;;3.13;1.52;;;;;;;;;;5062169;28;20049;-52
2022/05/11 15:07:45;;;;;;;3.40;1.33;;;;;;;;;;5064650;28;20032;-53
2022/05/11 15:10:11;;;;;;;5.72;1.40;;;;;;;;;;5068217;28;20028;-50
2022/05/11 15:15:25;;;;;;;3.38;1.70;;;;;;;;;;5066726;28;20052;-48
2022/05/11 15:17:51;;;;;;;2.35;1.73;;;;;;;;;;5066669;28;20039;-50
2022/05/11 15:20:18;;;;;;;5.65;1.50;;;;;;;;;;5061054;28;20061;-49
2022/05/11 15:22:44;;;;;;;5.45;1.17;;;;;;;;;;5068804;28;20033;-51
2022/05/11 15:25:13;;;;;;;2.08;1.50;;;;;;;;;;5056280;28;20033;-53
2022/05/11 15:27:41;;;;;;;9.02;1.63;;;;;;;;;;5056123;28;20075;-48
2022/05/11 15:30:07;;;;;;;1.95;1.30;;;;;;;;;;5070497;28;20037;-52
2022/05/11 15:32:33;;;;;;;5.15;1.35;;;;;;;;;;5056305;28;20054;-50
2022/05/11 15:34:59;;;;;;;5.20;1.50;;;;;;;;;;5062461;28;20491;-52
2022/05/11 15:37:26;;;;;;;3.17;1.52;;;;;;;;;;5063347;28;20017;-46